sensor_id;sensor_type;location;lat;lon;timestamp;temperature;humidity
12315;DHT22;23886;46.614;14.276;2023-02-28T00:01:35;-0.70;99.90
12315;DHT22;23886;46.614;14.276;2023-02-28T00:04:02;-0.80;99.90
12315;DHT22;23886;46.614;14.276;2023-02-28T00:06:29;-0.90;99.90
12315;DHT22;23886;46.614;14.276;2023-02-28T00:08:56;-0.90;99.90
12315;DHT22;23886;46.614;14.276;2023-02-28T00:11:23;-0.90;99.90
12315;DHT22;23886;46.614;14.276;2023-02-28T00:13:50;-0.70;99.90
12315;DHT22;23886;46.614;14.276;2023-02-28T00:16:20;-0.70;99.90
12315;DHT22;23886;46.614;14.276;2023-02-28T00:18:47;-0.70;99.90
12315;DHT22;23886;46.614;14.276;2023-02-28T00:21:15;-0.70;99.90
12315;DHT22;23886;46.614;14.276;2023-02-28T00:23:42;-0.70;99.90
12315;DHT22;23886;46.614;14.276;2023-02-28T00:26:09;-0.50;99.90
12315;DHT22;23886;46.614;14.276;2023-02-28T00:28:36;-0.50;99.90
12315;DHT22;23886;46.614;14.276;2023-02-28T00:31:03;-0.70;99.90
12315;DHT22;23886;46.614;14.276;2023-02-28T00:33:32;-0.80;99.90
12315;DHT22;23886;46.614;14.276;2023-02-28T00:36:04;-0.70;99.90
12315;DHT22;23886;46.614;14.276;2023-02-28T00:38:31;-0.80;99.90
12315;DHT22;23886;46.614;14.276;2023-02-28T00:40:58;-0.70;99.90
12315;DHT22;23886;46.614;14.276;2023-02-28T00:43:30;-0.60;99.90
12315;DHT22;23886;46.614;14.276;2023-02-28T00:45:57;-0.70;99.90
12315;DHT22;23886;46.614;14.276;2023-02-28T00:48:24;-0.60;99.90
12315;DHT22;23886;46.614;14.276;2023-02-28T00:50:53;-0.60;99.90
12315;DHT22;23886;46.614;14.276;2023-02-28T00:53:20;-0.60;99.90
12315;DHT22;23886;46.614;14.276;2023-02-28T00:55:48;-0.50;99.90
12315;DHT22;23886;46.614;14.276;2023-02-28T00:58:15;-0.70;99.90
12315;DHT22;23886;46.614;14.276;2023-02-28T01:00:42;-0.70;99.90
12315;DHT22;23886;46.614;14.276;2023-02-28T01:03:09;-0.60;99.90
12315;DHT22;23886;46.614;14.276;2023-02-28T01:05:36;-0.70;99.90
12315;DHT22;23886;46.614;14.276;2023-02-28T01:08:04;-0.70;99.90
12315;DHT22;23886;46.614;14.276;2023-02-28T01:10:31;-0.60;99.90
12315;DHT22;23886;46.614;14.276;2023-02-28T01:12:58;-0.60;99.90
12315;DHT22;23886;46.614;14.276;2023-02-28T01:15:25;-0.60;99.90
12315;DHT22;23886;46.614;14.276;2023-02-28T01:17:52;-0.60;99.90
12315;DHT22;23886;46.614;14.276;2023-02-28T01:20:20;-0.60;99.90
12315;DHT22;23886;46.614;14.276;2023-02-28T01:22:46;-0.60;99.90
12315;DHT22;23886;46.614;14.276;2023-02-28T01:25:15;-0.60;99.90
12315;DHT22;23886;46.614;14.276;2023-02-28T01:27:42;-0.60;99.90
12315;DHT22;23886;46.614;14.276;2023-02-28T01:30:10;-0.60;99.90
12315;DHT22;23886;46.614;14.276;2023-02-28T01:32:37;-0.50;99.90
12315;DHT22;23886;46.614;14.276;2023-02-28T01:35:05;-0.50;99.90
12315;DHT22;23886;46.614;14.276;2023-02-28T01:37:32;-0.50;99.90
12315;DHT22;23886;46.614;14.276;2023-02-28T01:39:59;-0.50;99.90
12315;DHT22;23886;46.614;14.276;2023-02-28T01:42:27;-0.50;99.90
12315;DHT22;23886;46.614;14.276;2023-02-28T01:45:01;-0.50;99.90
12315;DHT22;23886;46.614;14.276;2023-02-28T01:47:31;-0.60;99.90
12315;DHT22;23886;46.614;14.276;2023-02-28T01:50:00;-0.50;99.90
12315;DHT22;23886;46.614;14.276;2023-02-28T01:52:28;-0.50;99.90
12315;DHT22;23886;46.614;14.276;2023-02-28T01:54:57;-0.50;99.90
12315;DHT22;23886;46.614;14.276;2023-02-28T01:57:30;-0.40;99.90
12315;DHT22;23886;46.614;14.276;2023-02-28T02:00:06;-0.50;99.90
12315;DHT22;23886;46.614;14.276;2023-02-28T02:02:36;-0.50;99.90
12315;DHT22;23886;46.614;14.276;2023-02-28T02:05:05;-0.40;99.90
12315;DHT22;23886;46.614;14.276;2023-02-28T02:07:37;-0.50;99.90
12315;DHT22;23886;46.614;14.276;2023-02-28T02:10:07;-0.60;99.90
12315;DHT22;23886;46.614;14.276;2023-02-28T02:15:33;-0.70;99.90
12315;DHT22;23886;46.614;14.276;2023-02-28T02:18:06;-0.70;99.90
12315;DHT22;23886;46.614;14.276;2023-02-28T02:21:01;-0.70;99.90
12315;DHT22;23886;46.614;14.276;2023-02-28T02:23:49;-0.70;99.90
12315;DHT22;23886;46.614;14.276;2023-02-28T02:26:45;-0.60;99.90
12315;DHT22;23886;46.614;14.276;2023-02-28T02:29:56;-0.60;99.90
12315;DHT22;23886;46.614;14.276;2023-02-28T02:35:25;-0.60;99.90
12315;DHT22;23886;46.614;14.276;2023-02-28T02:38:00;-0.50;99.90
12315;DHT22;23886;46.614;14.276;2023-02-28T02:40:35;-0.60;99.90
12315;DHT22;23886;46.614;14.276;2023-02-28T02:43:08;-0.60;99.90
12315;DHT22;23886;46.614;14.276;2023-02-28T02:45:42;-0.60;99.90
12315;DHT22;23886;46.614;14.276;2023-02-28T02:48:20;-0.60;99.90
12315;DHT22;23886;46.614;14.276;2023-02-28T02:50:52;-0.70;99.90
12315;DHT22;23886;46.614;14.276;2023-02-28T02:53:24;-0.70;99.90
12315;DHT22;23886;46.614;14.276;2023-02-28T02:55:53;-0.60;99.90
12315;DHT22;23886;46.614;14.276;2023-02-28T02:58:25;-0.70;99.90
12315;DHT22;23886;46.614;14.276;2023-02-28T03:00:57;-0.60;99.90
12315;DHT22;23886;46.614;14.276;2023-02-28T03:03:27;-0.60;99.90
12315;DHT22;23886;46.614;14.276;2023-02-28T03:05:57;-0.60;99.90
12315;DHT22;23886;46.614;14.276;2023-02-28T03:08:26;-0.80;99.90
12315;DHT22;23886;46.614;14.276;2023-02-28T03:10:56;-0.70;99.90
12315;DHT22;23886;46.614;14.276;2023-02-28T03:16:32;-0.60;99.90
12315;DHT22;23886;46.614;14.276;2023-02-28T03:19:10;-0.60;99.90
12315;DHT22;23886;46.614;14.276;2023-02-28T03:21:45;-0.60;99.90
12315;DHT22;23886;46.614;14.276;2023-02-28T03:24:19;-0.50;99.90
12315;DHT22;23886;46.614;14.276;2023-02-28T03:26:55;-0.60;99.90
12315;DHT22;23886;46.614;14.276;2023-02-28T03:29:30;-0.60;99.90
12315;DHT22;23886;46.614;14.276;2023-02-28T03:32:04;-0.60;99.90
12315;DHT22;23886;46.614;14.276;2023-02-28T03:34:35;-0.70;99.90
12315;DHT22;23886;46.614;14.276;2023-02-28T03:37:08;-0.60;99.90
12315;DHT22;23886;46.614;14.276;2023-02-28T03:39:39;-0.70;99.90
12315;DHT22;23886;46.614;14.276;2023-02-28T03:42:11;-0.80;99.90
12315;DHT22;23886;46.614;14.276;2023-02-28T03:44:41;-0.90;99.90
12315;DHT22;23886;46.614;14.276;2023-02-28T03:47:12;-0.80;99.90
12315;DHT22;23886;46.614;14.276;2023-02-28T03:49:43;-0.70;99.90
12315;DHT22;23886;46.614;14.276;2023-02-28T03:52:15;-0.60;99.90
12315;DHT22;23886;46.614;14.276;2023-02-28T03:54:46;-0.70;99.90
12315;DHT22;23886;46.614;14.276;2023-02-28T03:57:18;-0.60;99.90
12315;DHT22;23886;46.614;14.276;2023-02-28T03:59:54;-0.60;99.90
12315;DHT22;23886;46.614;14.276;2023-02-28T04:02:23;-0.60;99.90
12315;DHT22;23886;46.614;14.276;2023-02-28T04:04:50;-0.60;99.90
12315;DHT22;23886;46.614;14.276;2023-02-28T04:07:19;-0.70;99.90
12315;DHT22;23886;46.614;14.276;2023-02-28T04:09:46;-0.80;99.90
12315;DHT22;23886;46.614;14.276;2023-02-28T04:12:13;-0.90;99.90
12315;DHT22;23886;46.614;14.276;2023-02-28T04:14:40;-0.90;99.90
12315;DHT22;23886;46.614;14.276;2023-02-28T04:17:07;-0.90;99.90
12315;DHT22;23886;46.614;14.276;2023-02-28T04:19:34;-0.80;99.90
12315;DHT22;23886;46.614;14.276;2023-02-28T04:22:00;-0.90;99.90
12315;DHT22;23886;46.614;14.276;2023-02-28T04:24:29;-0.90;99.90
12315;DHT22;23886;46.614;14.276;2023-02-28T04:26:57;-0.80;99.90
12315;DHT22;23886;46.614;14.276;2023-02-28T04:29:25;-0.70;99.90
12315;DHT22;23886;46.614;14.276;2023-02-28T04:31:53;-0.60;99.90
12315;DHT22;23886;46.614;14.276;2023-02-28T04:34:21;-0.60;99.90
12315;DHT22;23886;46.614;14.276;2023-02-28T04:36:49;-0.80;99.90
12315;DHT22;23886;46.614;14.276;2023-02-28T04:39:16;-0.80;99.90
12315;DHT22;23886;46.614;14.276;2023-02-28T04:41:45;-0.80;99.90
12315;DHT22;23886;46.614;14.276;2023-02-28T04:44:12;-0.70;99.90
12315;DHT22;23886;46.614;14.276;2023-02-28T04:46:39;-0.60;99.90
12315;DHT22;23886;46.614;14.276;2023-02-28T04:49:07;-0.70;99.90
12315;DHT22;23886;46.614;14.276;2023-02-28T04:51:34;-0.90;99.90
12315;DHT22;23886;46.614;14.276;2023-02-28T04:54:01;-0.90;99.90
12315;DHT22;23886;46.614;14.276;2023-02-28T04:56:28;-1.00;99.90
12315;DHT22;23886;46.614;14.276;2023-02-28T04:58:57;-0.90;99.90
12315;DHT22;23886;46.614;14.276;2023-02-28T05:01:25;-1.00;99.90
12315;DHT22;23886;46.614;14.276;2023-02-28T05:03:55;-1.00;99.90
12315;DHT22;23886;46.614;14.276;2023-02-28T05:06:24;-1.00;99.90
12315;DHT22;23886;46.614;14.276;2023-02-28T05:08:51;-1.00;99.90
12315;DHT22;23886;46.614;14.276;2023-02-28T05:11:20;-1.00;99.90
12315;DHT22;23886;46.614;14.276;2023-02-28T05:13:48;-1.00;99.90
12315;DHT22;23886;46.614;14.276;2023-02-28T05:16:17;-1.00;99.90
12315;DHT22;23886;46.614;14.276;2023-02-28T05:18:45;-1.00;99.90
12315;DHT22;23886;46.614;14.276;2023-02-28T05:21:25;-0.90;99.90
12315;DHT22;23886;46.614;14.276;2023-02-28T05:23:53;-0.80;99.90
12315;DHT22;23886;46.614;14.276;2023-02-28T05:26:21;-0.80;99.90
12315;DHT22;23886;46.614;14.276;2023-02-28T05:28:48;-0.70;99.90
12315;DHT22;23886;46.614;14.276;2023-02-28T05:31:17;-0.80;99.90
12315;DHT22;23886;46.614;14.276;2023-02-28T05:33:44;-0.90;99.90
12315;DHT22;23886;46.614;14.276;2023-02-28T05:36:11;-0.80;99.90
12315;DHT22;23886;46.614;14.276;2023-02-28T05:38:38;-0.70;99.90
12315;DHT22;23886;46.614;14.276;2023-02-28T05:41:06;-0.70;99.90
12315;DHT22;23886;46.614;14.276;2023-02-28T05:43:34;-0.70;99.90
12315;DHT22;23886;46.614;14.276;2023-02-28T05:46:03;-0.60;99.90
12315;DHT22;23886;46.614;14.276;2023-02-28T05:48:32;-0.70;99.90
12315;DHT22;23886;46.614;14.276;2023-02-28T05:50:59;-0.90;99.90
12315;DHT22;23886;46.614;14.276;2023-02-28T05:53:26;-0.90;99.90
12315;DHT22;23886;46.614;14.276;2023-02-28T05:55:53;-0.90;99.90
12315;DHT22;23886;46.614;14.276;2023-02-28T05:58:20;-0.80;99.90
12315;DHT22;23886;46.614;14.276;2023-02-28T06:00:48;-0.70;99.90
12315;DHT22;23886;46.614;14.276;2023-02-28T06:03:15;-0.60;99.90
12315;DHT22;23886;46.614;14.276;2023-02-28T06:05:43;-0.60;99.90
12315;DHT22;23886;46.614;14.276;2023-02-28T06:08:10;-0.60;99.90
12315;DHT22;23886;46.614;14.276;2023-02-28T06:10:37;-0.60;99.90
12315;DHT22;23886;46.614;14.276;2023-02-28T06:13:05;-0.60;99.90
12315;DHT22;23886;46.614;14.276;2023-02-28T06:15:32;-0.50;99.90
12315;DHT22;23886;46.614;14.276;2023-02-28T06:17:59;-0.40;99.90
12315;DHT22;23886;46.614;14.276;2023-02-28T06:20:27;-0.40;99.90
12315;DHT22;23886;46.614;14.276;2023-02-28T06:22:56;-0.40;99.90
12315;DHT22;23886;46.614;14.276;2023-02-28T06:25:25;-0.30;99.90
12315;DHT22;23886;46.614;14.276;2023-02-28T06:27:53;-0.30;99.90
12315;DHT22;23886;46.614;14.276;2023-02-28T06:30:20;-0.40;99.90
12315;DHT22;23886;46.614;14.276;2023-02-28T06:32:50;-0.30;99.90
12315;DHT22;23886;46.614;14.276;2023-02-28T06:35:17;-0.30;99.90
12315;DHT22;23886;46.614;14.276;2023-02-28T06:37:44;-0.30;99.90
12315;DHT22;23886;46.614;14.276;2023-02-28T06:40:14;-0.20;99.90
12315;DHT22;23886;46.614;14.276;2023-02-28T06:42:42;-0.20;99.90
12315;DHT22;23886;46.614;14.276;2023-02-28T06:45:10;-0.40;99.90
12315;DHT22;23886;46.614;14.276;2023-02-28T06:47:37;-0.30;99.90
12315;DHT22;23886;46.614;14.276;2023-02-28T06:50:06;-0.20;99.90
12315;DHT22;23886;46.614;14.276;2023-02-28T06:52:34;-0.20;99.90
12315;DHT22;23886;46.614;14.276;2023-02-28T06:55:03;-0.20;99.90
12315;DHT22;23886;46.614;14.276;2023-02-28T06:57:33;-0.20;99.90
12315;DHT22;23886;46.614;14.276;2023-02-28T07:00:02;-0.10;99.90
12315;DHT22;23886;46.614;14.276;2023-02-28T07:02:30;0.00;99.90
12315;DHT22;23886;46.614;14.276;2023-02-28T07:04:57;-0.10;99.90
12315;DHT22;23886;46.614;14.276;2023-02-28T07:07:24;-0.10;99.90
12315;DHT22;23886;46.614;14.276;2023-02-28T07:09:51;-0.10;99.90
12315;DHT22;23886;46.614;14.276;2023-02-28T07:12:18;-0.30;99.90
12315;DHT22;23886;46.614;14.276;2023-02-28T07:14:46;-0.30;99.90
12315;DHT22;23886;46.614;14.276;2023-02-28T07:17:13;-0.30;99.90
12315;DHT22;23886;46.614;14.276;2023-02-28T07:19:40;-0.20;99.90
12315;DHT22;23886;46.614;14.276;2023-02-28T07:22:07;-0.30;99.90
12315;DHT22;23886;46.614;14.276;2023-02-28T07:24:34;-0.30;99.90
12315;DHT22;23886;46.614;14.276;2023-02-28T07:27:01;-0.20;99.90
12315;DHT22;23886;46.614;14.276;2023-02-28T07:29:28;-0.30;99.90
12315;DHT22;23886;46.614;14.276;2023-02-28T07:31:57;-0.10;99.90
12315;DHT22;23886;46.614;14.276;2023-02-28T07:34:24;-0.10;99.90
12315;DHT22;23886;46.614;14.276;2023-02-28T07:36:53;-0.20;99.90
12315;DHT22;23886;46.614;14.276;2023-02-28T07:39:20;-0.10;99.90
12315;DHT22;23886;46.614;14.276;2023-02-28T07:41:47;0.10;99.90
12315;DHT22;23886;46.614;14.276;2023-02-28T07:44:15;0.20;99.90
12315;DHT22;23886;46.614;14.276;2023-02-28T07:46:42;0.30;99.90
12315;DHT22;23886;46.614;14.276;2023-02-28T07:49:10;0.40;99.90
12315;DHT22;23886;46.614;14.276;2023-02-28T07:51:37;0.10;99.90
12315;DHT22;23886;46.614;14.276;2023-02-28T07:54:05;0.00;99.90
12315;DHT22;23886;46.614;14.276;2023-02-28T07:56:32;0.30;99.90
12315;DHT22;23886;46.614;14.276;2023-02-28T07:58:59;0.20;99.90
12315;DHT22;23886;46.614;14.276;2023-02-28T08:01:27;0.50;99.90
12315;DHT22;23886;46.614;14.276;2023-02-28T08:03:54;0.60;99.90
12315;DHT22;23886;46.614;14.276;2023-02-28T08:06:24;0.60;99.90
12315;DHT22;23886;46.614;14.276;2023-02-28T08:08:52;0.30;99.90
12315;DHT22;23886;46.614;14.276;2023-02-28T08:11:21;0.50;99.90
12315;DHT22;23886;46.614;14.276;2023-02-28T08:13:49;0.50;99.90
12315;DHT22;23886;46.614;14.276;2023-02-28T08:16:16;0.50;99.90
12315;DHT22;23886;46.614;14.276;2023-02-28T08:18:48;0.50;99.90
12315;DHT22;23886;46.614;14.276;2023-02-28T08:21:14;0.60;99.90
12315;DHT22;23886;46.614;14.276;2023-02-28T08:23:43;0.40;99.90
12315;DHT22;23886;46.614;14.276;2023-02-28T08:26:10;0.70;99.90
12315;DHT22;23886;46.614;14.276;2023-02-28T08:28:37;0.80;99.90
12315;DHT22;23886;46.614;14.276;2023-02-28T08:31:08;0.70;99.90
12315;DHT22;23886;46.614;14.276;2023-02-28T08:33:35;0.80;99.90
12315;DHT22;23886;46.614;14.276;2023-02-28T08:36:05;0.70;99.90
12315;DHT22;23886;46.614;14.276;2023-02-28T08:38:32;0.80;99.90
12315;DHT22;23886;46.614;14.276;2023-02-28T08:41:02;0.90;99.90
12315;DHT22;23886;46.614;14.276;2023-02-28T08:43:29;1.00;99.90
12315;DHT22;23886;46.614;14.276;2023-02-28T08:45:56;0.80;99.90
12315;DHT22;23886;46.614;14.276;2023-02-28T08:48:23;0.90;99.90
12315;DHT22;23886;46.614;14.276;2023-02-28T08:50:57;0.80;99.90
12315;DHT22;23886;46.614;14.276;2023-02-28T08:53:24;0.70;99.90
12315;DHT22;23886;46.614;14.276;2023-02-28T08:55:58;0.70;99.90
12315;DHT22;23886;46.614;14.276;2023-02-28T08:58:27;1.00;99.90
12315;DHT22;23886;46.614;14.276;2023-02-28T09:00:54;1.20;99.90
12315;DHT22;23886;46.614;14.276;2023-02-28T09:03:22;1.50;99.90
12315;DHT22;23886;46.614;14.276;2023-02-28T09:05:53;1.70;99.90
12315;DHT22;23886;46.614;14.276;2023-02-28T09:08:21;1.90;99.90
12315;DHT22;23886;46.614;14.276;2023-02-28T09:10:48;1.70;99.90
12315;DHT22;23886;46.614;14.276;2023-02-28T09:13:15;1.30;99.90
12315;DHT22;23886;46.614;14.276;2023-02-28T09:15:44;1.00;99.90
12315;DHT22;23886;46.614;14.276;2023-02-28T09:18:11;1.20;99.90
12315;DHT22;23886;46.614;14.276;2023-02-28T09:20:39;1.50;99.90
12315;DHT22;23886;46.614;14.276;2023-02-28T09:23:06;1.30;99.90
12315;DHT22;23886;46.614;14.276;2023-02-28T09:25:34;1.60;99.90
12315;DHT22;23886;46.614;14.276;2023-02-28T09:28:01;1.80;99.90
12315;DHT22;23886;46.614;14.276;2023-02-28T09:30:29;1.70;99.50
12315;DHT22;23886;46.614;14.276;2023-02-28T09:32:58;1.70;99.90
12315;DHT22;23886;46.614;14.276;2023-02-28T09:35:25;2.00;99.90
12315;DHT22;23886;46.614;14.276;2023-02-28T09:37:53;1.80;99.90
12315;DHT22;23886;46.614;14.276;2023-02-28T09:40:22;2.30;99.90
12315;DHT22;23886;46.614;14.276;2023-02-28T09:42:53;2.30;99.10
12315;DHT22;23886;46.614;14.276;2023-02-28T09:45:24;2.40;99.70
12315;DHT22;23886;46.614;14.276;2023-02-28T09:47:56;2.80;99.50
12315;DHT22;23886;46.614;14.276;2023-02-28T09:50:32;3.00;98.70
12315;DHT22;23886;46.614;14.276;2023-02-28T09:53:02;2.90;98.00
12315;DHT22;23886;46.614;14.276;2023-02-28T09:55:35;3.00;98.80
12315;DHT22;23886;46.614;14.276;2023-02-28T09:58:05;2.40;99.80
12315;DHT22;23886;46.614;14.276;2023-02-28T10:00:39;2.10;99.00
12315;DHT22;23886;46.614;14.276;2023-02-28T10:03:28;1.60;99.90
12315;DHT22;23886;46.614;14.276;2023-02-28T10:06:01;2.00;99.90
12315;DHT22;23886;46.614;14.276;2023-02-28T10:08:36;2.60;99.60
12315;DHT22;23886;46.614;14.276;2023-02-28T10:11:13;3.00;98.80
12315;DHT22;23886;46.614;14.276;2023-02-28T10:13:50;3.20;97.80
12315;DHT22;23886;46.614;14.276;2023-02-28T10:16:24;3.40;97.70
12315;DHT22;23886;46.614;14.276;2023-02-28T10:18:55;2.30;98.90
12315;DHT22;23886;46.614;14.276;2023-02-28T10:21:29;2.20;99.10
12315;DHT22;23886;46.614;14.276;2023-02-28T10:24:03;2.60;98.90
12315;DHT22;23886;46.614;14.276;2023-02-28T10:26:32;2.40;99.10
12315;DHT22;23886;46.614;14.276;2023-02-28T10:28:59;2.50;99.30
12315;DHT22;23886;46.614;14.276;2023-02-28T10:31:28;2.90;98.30
12315;DHT22;23886;46.614;14.276;2023-02-28T10:33:55;2.90;98.30
12315;DHT22;23886;46.614;14.276;2023-02-28T10:36:22;2.70;98.20
12315;DHT22;23886;46.614;14.276;2023-02-28T10:38:51;2.90;98.00
12315;DHT22;23886;46.614;14.276;2023-02-28T10:41:28;3.50;96.80
12315;DHT22;23886;46.614;14.276;2023-02-28T10:44:12;3.30;96.00
12315;DHT22;23886;46.614;14.276;2023-02-28T10:46:40;3.10;97.60
12315;DHT22;23886;46.614;14.276;2023-02-28T10:49:14;3.10;96.80
12315;DHT22;23886;46.614;14.276;2023-02-28T10:51:41;2.90;97.70
12315;DHT22;23886;46.614;14.276;2023-02-28T10:54:16;3.40;97.20
12315;DHT22;23886;46.614;14.276;2023-02-28T10:56:45;3.80;97.00
12315;DHT22;23886;46.614;14.276;2023-02-28T10:59:27;3.40;97.00
12315;DHT22;23886;46.614;14.276;2023-02-28T11:01:54;3.70;96.10
12315;DHT22;23886;46.614;14.276;2023-02-28T11:04:33;3.60;95.90
12315;DHT22;23886;46.614;14.276;2023-02-28T11:07:05;4.10;95.70
12315;DHT22;23886;46.614;14.276;2023-02-28T11:09:35;3.70;96.00
12315;DHT22;23886;46.614;14.276;2023-02-28T11:12:06;3.10;96.60
12315;DHT22;23886;46.614;14.276;2023-02-28T11:14:48;3.40;96.80
12315;DHT22;23886;46.614;14.276;2023-02-28T11:17:20;3.20;96.30
12315;DHT22;23886;46.614;14.276;2023-02-28T11:19:50;3.40;97.10
12315;DHT22;23886;46.614;14.276;2023-02-28T11:22:20;3.10;96.20
12315;DHT22;23886;46.614;14.276;2023-02-28T11:24:51;2.90;96.80
12315;DHT22;23886;46.614;14.276;2023-02-28T11:27:49;3.00;97.30
12315;DHT22;23886;46.614;14.276;2023-02-28T11:30:32;2.90;97.10
12315;DHT22;23886;46.614;14.276;2023-02-28T11:33:01;3.60;96.20
12315;DHT22;23886;46.614;14.276;2023-02-28T11:35:30;3.40;95.70
12315;DHT22;23886;46.614;14.276;2023-02-28T11:38:00;3.50;94.70
12315;DHT22;23886;46.614;14.276;2023-02-28T11:40:36;3.30;94.90
12315;DHT22;23886;46.614;14.276;2023-02-28T11:43:18;3.40;95.80
12315;DHT22;23886;46.614;14.276;2023-02-28T11:45:59;3.30;96.20
12315;DHT22;23886;46.614;14.276;2023-02-28T11:48:33;3.00;96.60
12315;DHT22;23886;46.614;14.276;2023-02-28T11:51:10;2.60;96.00
12315;DHT22;23886;46.614;14.276;2023-02-28T11:53:57;3.00;97.20
12315;DHT22;23886;46.614;14.276;2023-02-28T11:56:33;3.30;96.00
12315;DHT22;23886;46.614;14.276;2023-02-28T11:59:27;3.40;96.80
12315;DHT22;23886;46.614;14.276;2023-02-28T12:02:06;2.90;96.70
12315;DHT22;23886;46.614;14.276;2023-02-28T12:04:50;2.80;97.20
12315;DHT22;23886;46.614;14.276;2023-02-28T12:07:26;3.30;96.00
12315;DHT22;23886;46.614;14.276;2023-02-28T12:10:00;2.90;96.60
12315;DHT22;23886;46.614;14.276;2023-02-28T12:12:41;3.10;97.00
12315;DHT22;23886;46.614;14.276;2023-02-28T12:21:32;4.10;95.50
12315;DHT22;23886;46.614;14.276;2023-02-28T12:24:13;4.50;94.80
12315;DHT22;23886;46.614;14.276;2023-02-28T12:26:46;4.00;93.50
12315;DHT22;23886;46.614;14.276;2023-02-28T12:29:19;3.90;94.70
12315;DHT22;23886;46.614;14.276;2023-02-28T12:31:53;3.80;94.80
12315;DHT22;23886;46.614;14.276;2023-02-28T12:34:27;3.40;96.00
12315;DHT22;23886;46.614;14.276;2023-02-28T12:36:56;3.30;96.70
12315;DHT22;23886;46.614;14.276;2023-02-28T12:39:28;4.00;96.40
12315;DHT22;23886;46.614;14.276;2023-02-28T12:42:00;4.70;95.50
12315;DHT22;23886;46.614;14.276;2023-02-28T12:44:34;4.00;95.50
12315;DHT22;23886;46.614;14.276;2023-02-28T12:47:03;3.90;96.30
12315;DHT22;23886;46.614;14.276;2023-02-28T12:49:33;4.40;95.80
12315;DHT22;23886;46.614;14.276;2023-02-28T12:52:02;4.70;94.60
12315;DHT22;23886;46.614;14.276;2023-02-28T12:54:33;4.50;94.70
12315;DHT22;23886;46.614;14.276;2023-02-28T12:57:08;4.30;94.70
12315;DHT22;23886;46.614;14.276;2023-02-28T12:59:41;3.80;95.70
12315;DHT22;23886;46.614;14.276;2023-02-28T13:11:41;3.70;96.40
12315;DHT22;23886;46.614;14.276;2023-02-28T13:14:28;3.10;96.90
12315;DHT22;23886;46.614;14.276;2023-02-28T13:17:10;3.20;96.90
12315;DHT22;23886;46.614;14.276;2023-02-28T13:19:40;3.10;97.30
12315;DHT22;23886;46.614;14.276;2023-02-28T13:22:17;3.00;97.80
12315;DHT22;23886;46.614;14.276;2023-02-28T13:24:47;3.10;97.50
12315;DHT22;23886;46.614;14.276;2023-02-28T13:27:36;3.10;97.40
12315;DHT22;23886;46.614;14.276;2023-02-28T13:33:24;3.80;97.10
12315;DHT22;23886;46.614;14.276;2023-02-28T13:36:25;3.90;98.00
12315;DHT22;23886;46.614;14.276;2023-02-28T13:38:52;4.50;96.80
12315;DHT22;23886;46.614;14.276;2023-02-28T13:41:43;4.50;96.10
12315;DHT22;23886;46.614;14.276;2023-02-28T13:44:11;4.10;96.90
12315;DHT22;23886;46.614;14.276;2023-02-28T13:49:40;4.50;96.20
12315;DHT22;23886;46.614;14.276;2023-02-28T13:52:14;3.70;96.80
12315;DHT22;23886;46.614;14.276;2023-02-28T13:55:06;3.60;97.70
12315;DHT22;23886;46.614;14.276;2023-02-28T13:58:03;3.70;97.80
12315;DHT22;23886;46.614;14.276;2023-02-28T14:00:42;3.60;97.90
12315;DHT22;23886;46.614;14.276;2023-02-28T14:03:22;3.40;98.10
12315;DHT22;23886;46.614;14.276;2023-02-28T14:06:14;3.70;98.20
12315;DHT22;23886;46.614;14.276;2023-02-28T14:08:53;3.30;97.70
12315;DHT22;23886;46.614;14.276;2023-02-28T14:11:31;3.10;98.50
12315;DHT22;23886;46.614;14.276;2023-02-28T14:13:59;3.00;99.00
12315;DHT22;23886;46.614;14.276;2023-02-28T14:16:35;3.20;98.40
12315;DHT22;23886;46.614;14.276;2023-02-28T14:19:09;3.00;98.70
12315;DHT22;23886;46.614;14.276;2023-02-28T14:21:40;2.80;98.20
12315;DHT22;23886;46.614;14.276;2023-02-28T14:24:24;2.80;99.20
12315;DHT22;23886;46.614;14.276;2023-02-28T14:27:20;3.10;98.90
12315;DHT22;23886;46.614;14.276;2023-02-28T14:30:15;3.10;97.80
12315;DHT22;23886;46.614;14.276;2023-02-28T14:32:54;3.10;98.00
12315;DHT22;23886;46.614;14.276;2023-02-28T14:35:43;3.20;98.20
12315;DHT22;23886;46.614;14.276;2023-02-28T14:38:19;3.30;98.40
12315;DHT22;23886;46.614;14.276;2023-02-28T14:40:49;3.10;98.70
12315;DHT22;23886;46.614;14.276;2023-02-28T14:43:22;2.90;98.90
12315;DHT22;23886;46.614;14.276;2023-02-28T14:45:51;2.80;98.50
12315;DHT22;23886;46.614;14.276;2023-02-28T14:48:19;2.80;98.90
12315;DHT22;23886;46.614;14.276;2023-02-28T14:50:49;2.80;99.20
12315;DHT22;23886;46.614;14.276;2023-02-28T14:53:20;2.80;99.30
12315;DHT22;23886;46.614;14.276;2023-02-28T14:55:48;2.90;99.00
12315;DHT22;23886;46.614;14.276;2023-02-28T14:58:24;2.80;99.30
12315;DHT22;23886;46.614;14.276;2023-02-28T15:00:53;2.90;99.20
12315;DHT22;23886;46.614;14.276;2023-02-28T15:03:22;2.60;98.90
12315;DHT22;23886;46.614;14.276;2023-02-28T15:05:54;2.50;99.90
12315;DHT22;23886;46.614;14.276;2023-02-28T15:08:24;2.40;99.90
12315;DHT22;23886;46.614;14.276;2023-02-28T15:10:54;2.60;99.90
12315;DHT22;23886;46.614;14.276;2023-02-28T15:13:23;2.50;99.90
12315;DHT22;23886;46.614;14.276;2023-02-28T15:15:54;2.70;99.90
12315;DHT22;23886;46.614;14.276;2023-02-28T15:18:28;2.80;99.70
12315;DHT22;23886;46.614;14.276;2023-02-28T15:20:57;2.90;99.90
12315;DHT22;23886;46.614;14.276;2023-02-28T15:23:28;3.10;99.90
12315;DHT22;23886;46.614;14.276;2023-02-28T15:25:56;3.00;99.40
12315;DHT22;23886;46.614;14.276;2023-02-28T15:28:23;3.00;99.80
12315;DHT22;23886;46.614;14.276;2023-02-28T15:30:54;3.10;99.90
12315;DHT22;23886;46.614;14.276;2023-02-28T15:33:23;2.80;99.60
12315;DHT22;23886;46.614;14.276;2023-02-28T15:35:51;2.70;99.60
12315;DHT22;23886;46.614;14.276;2023-02-28T15:38:34;2.70;99.90
12315;DHT22;23886;46.614;14.276;2023-02-28T15:41:01;2.70;99.90
12315;DHT22;23886;46.614;14.276;2023-02-28T15:43:35;2.50;99.80
12315;DHT22;23886;46.614;14.276;2023-02-28T15:46:04;2.40;99.70
12315;DHT22;23886;46.614;14.276;2023-02-28T15:48:35;2.20;99.90
12315;DHT22;23886;46.614;14.276;2023-02-28T15:51:06;2.20;99.90
12315;DHT22;23886;46.614;14.276;2023-02-28T15:53:37;2.20;99.90
12315;DHT22;23886;46.614;14.276;2023-02-28T15:56:06;2.30;99.90
12315;DHT22;23886;46.614;14.276;2023-02-28T15:58:35;2.20;99.90
12315;DHT22;23886;46.614;14.276;2023-02-28T16:01:16;2.20;99.90
12315;DHT22;23886;46.614;14.276;2023-02-28T16:03:46;2.20;99.90
12315;DHT22;23886;46.614;14.276;2023-02-28T16:06:38;2.30;99.90
12315;DHT22;23886;46.614;14.276;2023-02-28T16:09:12;2.30;99.90
12315;DHT22;23886;46.614;14.276;2023-02-28T16:11:44;2.30;99.90
12315;DHT22;23886;46.614;14.276;2023-02-28T16:14:15;2.40;99.90
12315;DHT22;23886;46.614;14.276;2023-02-28T16:16:43;2.30;99.90
12315;DHT22;23886;46.614;14.276;2023-02-28T16:19:12;2.20;99.90